createdAt,value
2022-10-22T00:00:02.858Z,98365.91
2022-10-22T00:02:29.284Z,98373.63
2022-10-22T00:04:57.046Z,98368.78
2022-10-22T00:07:23.731Z,98378.91
2022-10-22T00:09:50.206Z,98373.28
2022-10-22T00:12:17.462Z,98365.41
2022-10-22T00:14:44.085Z,98370.38
2022-10-22T00:17:11.471Z,98359.81
2022-10-22T00:19:38.951Z,98356.28
2022-10-22T00:22:05.734Z,98362.06
2022-10-22T00:24:33.774Z,98353.38
2022-10-22T00:27:00.310Z,98354.84
2022-10-22T00:29:26.699Z,98359.47
2022-10-22T00:31:53.143Z,98352.44
2022-10-22T00:34:22.956Z,98350.84
2022-10-22T00:36:50.307Z,98360.91
2022-10-22T00:39:18.935Z,98363.63
2022-10-22T00:41:47.474Z,98362.03
2022-10-22T00:44:51.396Z,98371.00
2022-10-22T00:47:18.793Z,98366.34
2022-10-22T00:49:46.890Z,98356.91
2022-10-22T00:52:14.252Z,98358.84
2022-10-22T00:54:42.354Z,98357.72
2022-10-22T00:57:09.371Z,98354.50
2022-10-22T00:59:36.784Z,98352.09
2022-10-22T01:02:04.460Z,98353.84
2022-10-22T01:04:30.804Z,98347.94
2022-10-22T01:06:57.203Z,98340.88
2022-10-22T01:09:59.400Z,98351.59
2022-10-22T01:13:02.470Z,98346.94
2022-10-22T01:15:58.243Z,98336.06
2022-10-22T01:18:34.937Z,98332.19
2022-10-22T01:21:20.482Z,98333.81
2022-10-22T01:24:19.294Z,98330.59
2022-10-22T01:27:10.362Z,98308.81
2022-10-22T01:29:50.675Z,98301.75
2022-10-22T01:32:21.362Z,98297.09
2022-10-22T01:34:52.918Z,98310.41
2022-10-22T01:37:22.918Z,98322.44
2022-10-22T01:39:50.548Z,98325.16
2022-10-22T01:42:16.940Z,98345.34
2022-10-22T01:44:44.564Z,98363.28
2022-10-22T01:47:13.913Z,98352.41
2022-10-22T01:49:49.467Z,98344.22
2022-10-22T01:52:30.871Z,98355.91
2022-10-22T01:55:21.084Z,98348.88
2022-10-22T01:58:00.036Z,98352.41
2022-10-22T02:00:26.553Z,98350.47
2022-10-22T02:03:03.436Z,98353.19
2022-10-22T02:05:37.371Z,98361.69
2022-10-22T02:08:14.611Z,98353.53
2022-10-22T02:10:44.790Z,98353.53
2022-10-22T02:13:20.474Z,98363.94
2022-10-22T02:15:51.222Z,98366.97
2022-10-22T02:18:21.824Z,98371.59
2022-10-22T02:20:49.506Z,98384.13
2022-10-22T02:23:16.318Z,98379.31
2022-10-22T02:25:48.555Z,98373.38
2022-10-22T02:28:32.078Z,98382.69
2022-10-22T02:31:15.008Z,98376.72
2022-10-22T02:33:47.201Z,98365.81
2022-10-22T02:36:16.328Z,98360.38
2022-10-22T02:38:43.310Z,98365.34
2022-10-22T02:41:10.031Z,98372.72
2022-10-22T02:43:42.652Z,98365.66
2022-10-22T02:46:10.138Z,98360.53
2022-10-22T02:48:37.045Z,98379.59
2022-10-22T02:51:03.828Z,98377.97
2022-10-22T02:53:30.160Z,98385.53
2022-10-22T02:55:56.587Z,98384.41
2022-10-22T02:58:22.921Z,98378.97
2022-10-22T03:00:49.357Z,98381.38
2022-10-22T03:03:15.780Z,98383.78
2022-10-22T03:05:42.142Z,98369.84
2022-10-22T03:08:08.713Z,98365.22
2022-10-22T03:10:35.213Z,98359.75
2022-10-22T03:13:01.591Z,98362.16
2022-10-22T03:17:59.246Z,98340.03
2022-10-22T03:20:25.649Z,98359.09
2022-10-22T03:22:52.688Z,98360.72
2022-10-22T03:25:22.412Z,98357.97
2022-10-22T03:27:51.531Z,98346.28
2022-10-22T03:30:18.754Z,98350.47
2022-10-22T03:32:45.230Z,98352.72
2022-10-22T03:35:11.589Z,98351.13
2022-10-22T03:37:39.289Z,98345.16
2022-10-22T03:40:07.572Z,98350.13
2022-10-22T03:42:34.249Z,98337.13
2022-10-22T03:45:00.607Z,98335.53
2022-10-22T03:47:27.486Z,98335.84
2022-10-22T03:49:53.948Z,98332.81
2022-10-22T03:52:20.431Z,98345.28
2022-10-22T03:54:46.883Z,98345.28
2022-10-22T03:57:13.311Z,98345.81
2022-10-22T03:59:45.118Z,98356.69
2022-10-22T04:02:13.046Z,98368.41
2022-10-22T04:04:39.800Z,98353.97
2022-10-22T04:07:07.379Z,98347.72
2022-10-22T04:09:34.693Z,98345.28
2022-10-22T04:12:01.329Z,98349.94
2022-10-22T04:14:27.828Z,98343.69
2022-10-22T04:16:54.412Z,98348.66
2022-10-22T04:19:20.796Z,98373.50
2022-10-22T04:21:47.141Z,98386.31
2022-10-22T04:24:14.168Z,98391.75
2022-10-22T04:26:40.604Z,98377.03
2022-10-22T04:29:10.550Z,98382.47
2022-10-22T04:31:39.933Z,98368.38
2022-10-22T04:34:06.312Z,98361.31
2022-10-22T04:36:33.914Z,98364.34
2022-10-22T04:39:01.080Z,98373.63
2022-10-22T04:41:30.065Z,98376.69
2022-10-22T04:43:57.318Z,98379.72
2022-10-22T04:46:25.958Z,98378.09
2022-10-22T04:48:53.044Z,98370.88
2022-10-22T04:51:21.957Z,98375.84
2022-10-22T04:53:48.970Z,98375.34
2022-10-22T04:56:21.488Z,98385.75
2022-10-22T04:58:49.151Z,98383.53
2022-10-22T05:01:27.551Z,98379.38
2022-10-22T05:03:56.385Z,98387.38
2022-10-22T05:06:23.511Z,98385.31
2022-10-22T05:08:55.685Z,98383.09
2022-10-22T05:11:28.768Z,98387.91
2022-10-22T05:13:56.963Z,98398.81
2022-10-22T05:16:23.669Z,98397.69
2022-10-22T05:18:50.799Z,98406.34
2022-10-22T05:21:19.778Z,98404.13
2022-10-22T05:23:48.819Z,98409.25
2022-10-22T05:26:20.776Z,98399.16
2022-10-22T05:28:48.634Z,98406.19
2022-10-22T05:31:15.927Z,98411.16
2022-10-22T05:33:43.308Z,98412.78
2022-10-22T05:36:13.336Z,98418.69
2022-10-22T05:38:39.855Z,98415.97
2022-10-22T05:41:12.475Z,98424.16
2022-10-22T05:43:39.146Z,98440.50
2022-10-22T05:46:08.644Z,98440.50
2022-10-22T05:48:35.660Z,98448.66
2022-10-22T05:51:07.932Z,98458.44
2022-10-22T05:53:35.616Z,98473.19
2022-10-22T05:56:11.142Z,98484.88
2022-10-22T05:58:37.604Z,98478.31
2022-10-22T06:01:24.283Z,98486.97
2022-10-22T06:03:53.619Z,98496.44
2022-10-22T06:06:30.694Z,98489.88
2022-10-22T06:09:01.286Z,98488.25
2022-10-22T06:11:29.910Z,98497.38
2022-10-22T06:13:59.087Z,98498.81
2022-10-22T06:16:25.559Z,98503.47
2022-10-22T06:18:51.907Z,98513.88
2022-10-22T06:21:18.277Z,98513.19
2022-10-22T06:23:44.616Z,98517.34
2022-10-22T06:26:11.636Z,98522.50
2022-10-22T06:28:38.644Z,98524.69
2022-10-22T06:31:05.539Z,98523.09
2022-10-22T06:33:34.227Z,98524.69
2022-10-22T06:36:08.603Z,98523.28
2022-10-22T06:38:35.197Z,98534.19
2022-10-22T06:41:20.756Z,98544.63
2022-10-22T06:43:47.816Z,98548.03
2022-10-22T06:46:19.843Z,98550.78
2022-10-22T06:48:55.875Z,98550.16
2022-10-22T06:51:22.355Z,98543.09
2022-10-22T06:53:49.579Z,98554.00
2022-10-22T06:56:19.054Z,98560.25
2022-10-22T06:58:49.768Z,98562.19
2022-10-22T07:01:18.898Z,98565.69
2022-10-22T07:03:45.696Z,98568.09
2022-10-22T07:06:14.264Z,98574.56
2022-10-22T07:08:41.839Z,98575.53
2022-10-22T07:11:20.412Z,98579.22
2022-10-22T07:13:47.991Z,98589.22
2022-10-22T07:16:15.480Z,98593.41
2022-10-22T07:18:43.745Z,98602.88
2022-10-22T07:21:12.260Z,98599.53
2022-10-22T07:23:39.580Z,98608.19
2022-10-22T07:26:08.417Z,98608.34
2022-10-22T07:28:37.933Z,98614.47
2022-10-22T07:31:04.756Z,98614.03
2022-10-22T07:33:31.169Z,98608.91
2022-10-22T07:36:02.631Z,98610.22
2022-10-22T07:38:29.395Z,98614.56
2022-10-22T07:40:56.143Z,98617.63
2022-10-22T07:43:23.106Z,98621.94
2022-10-22T07:45:49.594Z,98624.34
2022-10-22T07:48:16.974Z,98622.41
2022-10-22T07:53:10.746Z,98626.44
2022-10-22T07:55:37.707Z,98633.53
2022-10-22T07:58:04.291Z,98631.28
2022-10-22T08:00:30.681Z,98622.75
2022-10-22T08:02:57.082Z,98626.47
2022-10-22T08:05:23.625Z,98630.81
2022-10-22T08:07:50.114Z,98629.38
2022-10-22T08:10:16.590Z,98635.34
2022-10-22T08:12:43.443Z,98641.28
2022-10-22T08:15:29.776Z,98646.91
2022-10-22T08:20:56.692Z,98649.03
2022-10-22T08:24:29.731Z,98646.16
2022-10-22T08:27:12.407Z,98646.00
2022-10-22T08:37:17.968Z,98648.31
2022-10-22T08:43:42.844Z,98643.47
2022-10-22T08:54:22.000Z,98644.31
2022-10-22T08:57:23.991Z,98655.56
2022-10-22T09:00:04.576Z,98651.06
2022-10-22T09:03:23.056Z,98648.81
2022-10-22T09:06:28.816Z,98652.34
2022-10-22T09:12:20.302Z,98658.75
2022-10-22T09:14:47.122Z,98656.22
2022-10-22T09:17:38.345Z,98655.22
2022-10-22T09:20:23.729Z,98659.06
2022-10-22T09:22:56.702Z,98656.44
2022-10-22T09:25:28.366Z,98664.13
2022-10-22T09:27:58.751Z,98659.44
2022-10-22T09:30:29.683Z,98657.28
2022-10-22T09:33:08.029Z,98665.56
2022-10-22T09:35:46.693Z,98665.00
2022-10-22T09:38:15.810Z,98657.03
2022-10-22T09:40:54.459Z,98661.56
2022-10-22T09:43:20.922Z,98662.72
2022-10-22T09:45:48.320Z,98664.50
2022-10-22T09:48:14.712Z,98655.72
2022-10-22T09:50:44.747Z,98660.22
2022-10-22T09:53:26.999Z,98671.69
2022-10-22T09:55:57.144Z,98666.34
2022-10-22T09:58:42.296Z,98673.31
2022-10-22T10:01:25.132Z,98671.75
2022-10-22T10:04:42.978Z,98675.06
2022-10-22T10:25:27.429Z,98697.38
2022-10-22T10:32:14.994Z,98695.50
2022-10-22T10:35:39.455Z,98709.00
2022-10-22T10:39:15.244Z,98703.66
2022-10-22T10:42:45.254Z,98701.41
2022-10-22T10:45:37.581Z,98705.19
2022-10-22T10:48:58.059Z,98712.91
2022-10-22T10:59:15.127Z,98728.41
2022-10-22T11:02:19.256Z,98715.47
2022-10-22T11:12:43.016Z,98711.56
2022-10-22T11:18:45.595Z,98703.00
2022-10-22T11:22:01.887Z,98709.59
2022-10-22T11:24:57.199Z,98710.19
2022-10-22T11:27:57.512Z,98700.28
2022-10-22T11:31:22.391Z,98709.47
2022-10-22T11:34:33.099Z,98705.56
2022-10-22T11:37:10.265Z,98707.13
2022-10-22T11:39:48.484Z,98705.38
2022-10-22T11:42:44.295Z,98697.41
2022-10-22T11:45:16.874Z,98697.47
2022-10-22T11:48:21.608Z,98698.44
2022-10-22T11:50:54.865Z,98678.47
2022-10-22T12:00:36.442Z,98685.50
2022-10-22T12:03:16.128Z,98687.84
2022-10-22T12:05:43.998Z,98691.31
2022-10-22T12:08:14.781Z,98689.28
2022-10-22T12:10:55.665Z,98686.06
2022-10-22T12:13:25.815Z,98684.88
2022-10-22T12:15:56.652Z,98686.97
2022-10-22T12:18:25.961Z,98684.50
2022-10-22T12:20:55.453Z,98690.75
2022-10-22T12:23:29.390Z,98685.81
2022-10-22T12:25:55.823Z,98679.69
2022-10-22T12:28:22.639Z,98671.94
2022-10-22T12:30:49.024Z,98669.22
2022-10-22T12:33:23.086Z,98670.75
2022-10-22T12:35:53.980Z,98670.63
2022-10-22T12:38:23.022Z,98667.78
2022-10-22T12:40:51.229Z,98669.81
2022-10-22T12:43:23.784Z,98666.75
2022-10-22T12:45:51.261Z,98664.66
2022-10-22T12:48:22.420Z,98659.66
2022-10-22T12:50:53.072Z,98658.91
2022-10-22T12:53:41.334Z,98668.94
2022-10-22T12:56:13.307Z,98660.88
2022-10-22T12:58:43.081Z,98665.63
2022-10-22T13:01:12.365Z,98664.56
2022-10-22T13:03:50.426Z,98662.22
2022-10-22T13:06:19.787Z,98662.53
2022-10-22T13:08:58.717Z,98659.19
2022-10-22T13:12:02.180Z,98657.59
2022-10-22T13:14:34.572Z,98657.59
2022-10-22T13:17:11.078Z,98660.97
2022-10-22T13:19:40.357Z,98664.88
2022-10-22T13:22:30.986Z,98657.47
2022-10-22T13:25:03.516Z,98658.00
2022-10-22T13:27:30.969Z,98658.44
2022-10-22T13:30:01.047Z,98651.31
2022-10-22T13:32:30.289Z,98650.63
2022-10-22T13:34:59.672Z,98651.75
2022-10-22T13:37:27.850Z,98652.81
2022-10-22T13:39:54.257Z,98658.53
2022-10-22T13:42:20.632Z,98661.94
2022-10-22T13:44:47.127Z,98652.28
2022-10-22T13:47:25.531Z,98653.75
2022-10-22T13:49:54.126Z,98654.28
2022-10-22T13:52:44.899Z,98654.28
2022-10-22T13:55:15.963Z,98649.25
2022-10-22T13:57:42.416Z,98651.34
2022-10-22T14:00:12.677Z,98653.50
2022-10-22T14:02:40.306Z,98655.19
2022-10-22T14:05:09.431Z,98648.75
2022-10-22T14:07:37.390Z,98653.72
2022-10-22T14:10:13.675Z,98646.41
2022-10-22T14:12:40.030Z,98642.38
2022-10-22T14:15:07.130Z,98643.78
2022-10-22T14:17:33.559Z,98644.38
2022-10-22T14:20:00.404Z,98650.50
2022-10-22T14:22:28.261Z,98657.06
2022-10-22T14:24:55.149Z,98653.06
2022-10-22T14:27:21.583Z,98652.53
2022-10-22T14:29:47.970Z,98658.72
2022-10-22T14:32:19.076Z,98647.19
2022-10-22T14:34:46.835Z,98652.94
2022-10-22T14:37:19.233Z,98663.03
2022-10-22T14:39:47.238Z,98649.63
2022-10-22T14:42:14.477Z,98657.44
2022-10-22T14:44:41.085Z,98657.31
2022-10-22T14:47:07.511Z,98655.72
2022-10-22T14:49:33.992Z,98647.41
2022-10-22T14:52:00.591Z,98649.31
2022-10-22T14:54:26.938Z,98656.31
2022-10-22T14:56:53.325Z,98654.25
2022-10-22T14:59:19.770Z,98652.19
2022-10-22T15:01:46.127Z,98660.00
2022-10-22T15:04:12.523Z,98650.50
2022-10-22T15:06:39.187Z,98656.69
2022-10-22T15:09:05.643Z,98659.78
2022-10-22T15:11:32.111Z,98660.94
2022-10-22T15:13:58.487Z,98670.34
2022-10-22T15:16:24.930Z,98663.50
2022-10-22T15:18:53.002Z,98672.06
2022-10-22T15:21:21.617Z,98670.81
2022-10-22T15:23:48.488Z,98676.75
2022-10-22T15:26:15.144Z,98664.63
2022-10-22T15:28:42.280Z,98665.75
2022-10-22T15:31:12.568Z,98668.06
2022-10-22T15:33:41.551Z,98670.38
2022-10-22T15:36:15.887Z,98670.59
2022-10-22T15:38:42.302Z,98660.56
2022-10-22T15:41:11.850Z,98654.72
2022-10-22T15:43:38.240Z,98660.56
2022-10-22T15:46:19.199Z,98657.38
2022-10-22T15:48:45.978Z,98658.06
2022-10-22T15:51:15.550Z,98662.28
2022-10-22T15:53:42.407Z,98658.72
2022-10-22T15:56:09.736Z,98663.03
2022-10-22T15:58:36.163Z,98660.75
2022-10-22T16:01:07.607Z,98660.50
2022-10-22T16:03:34.559Z,98664.13
2022-10-22T16:06:01.957Z,98665.16
2022-10-22T16:08:32.434Z,98661.81
2022-10-22T16:10:59.270Z,98665.56
2022-10-22T16:13:26.589Z,98658.34
2022-10-22T16:15:53.495Z,98670.00
2022-10-22T16:18:20.432Z,98665.81
2022-10-22T16:20:47.384Z,98674.28
2022-10-22T16:23:15.495Z,98663.03
2022-10-22T16:25:42.603Z,98665.97
2022-10-22T16:28:10.808Z,98668.91
2022-10-22T16:30:38.106Z,98669.59
2022-10-22T16:33:06.676Z,98670.25
2022-10-22T16:35:34.483Z,98668.19
2022-10-22T16:38:00.901Z,98673.88
2022-10-22T16:40:29.050Z,98667.66
2022-10-22T16:42:55.462Z,98666.91
2022-10-22T16:45:21.937Z,98676.00
2022-10-22T16:47:48.986Z,98680.28
2022-10-22T16:50:15.792Z,98694.47
2022-10-22T16:52:42.464Z,98692.56
2022-10-22T16:55:09.229Z,98696.50
2022-10-22T16:57:36.057Z,98698.44
2022-10-22T17:00:04.520Z,98701.53
2022-10-22T17:02:30.929Z,98705.56
2022-10-22T17:04:57.400Z,98703.34
2022-10-22T17:07:23.788Z,98701.59
2022-10-22T17:09:51.627Z,98707.25
2022-10-22T17:12:18.159Z,98703.53
2022-10-22T17:14:44.645Z,98706.63
2022-10-22T17:17:11.060Z,98706.63
2022-10-22T17:19:38.815Z,98707.91
2022-10-22T17:22:05.602Z,98703.06
2022-10-22T17:24:32.047Z,98702.78
2022-10-22T17:26:58.485Z,98704.88
2022-10-22T17:29:25.249Z,98702.34
2022-10-22T17:31:52.522Z,98713.09
2022-10-22T17:34:18.910Z,98717.59
2022-10-22T17:36:45.483Z,98727.59
2022-10-22T17:39:17.488Z,98721.66
2022-10-22T17:41:43.879Z,98732.25
2022-10-22T17:44:16.834Z,98722.94
2022-10-22T17:46:43.951Z,98730.66
2022-10-22T17:49:18.041Z,98729.19
2022-10-22T17:51:44.990Z,98734.00
2022-10-22T17:54:12.539Z,98740.94
2022-10-22T17:56:40.350Z,98746.22
2022-10-22T17:59:08.381Z,98743.31
2022-10-22T18:01:36.232Z,98740.75
2022-10-22T18:04:07.779Z,98744.44
2022-10-22T18:06:34.927Z,98744.44
2022-10-22T18:09:04.698Z,98747.66
2022-10-22T18:11:32.456Z,98751.50
2022-10-22T18:13:58.893Z,98750.53
2022-10-22T18:16:26.292Z,98745.53
2022-10-22T18:18:55.216Z,98741.16
2022-10-22T18:21:23.276Z,98734.75
2022-10-22T18:23:50.057Z,98738.44
2022-10-22T18:26:19.340Z,98737.28
2022-10-22T18:28:51.055Z,98736.81
2022-10-22T18:31:20.683Z,98737.63
2022-10-22T18:33:48.083Z,98732.81
2022-10-22T18:36:18.968Z,98736.47
2022-10-22T18:38:50.488Z,98733.28
2022-10-22T18:41:17.478Z,98734.69
2022-10-22T18:43:43.824Z,98735.34
2022-10-22T18:46:10.404Z,98728.09
2022-10-22T18:48:36.861Z,98729.22
2022-10-22T18:51:14.191Z,98733.38
2022-10-22T18:53:40.702Z,98730.47
2022-10-22T18:56:09.212Z,98733.53
2022-10-22T18:58:42.623Z,98726.78
2022-10-22T19:01:10.817Z,98723.41
2022-10-22T19:03:37.243Z,98718.09
2022-10-22T19:06:04.003Z,98728.19
2022-10-22T19:08:30.748Z,98721.47
2022-10-22T19:10:57.875Z,98724.19
2022-10-22T19:13:25.651Z,98730.44
2022-10-22T19:15:52.734Z,98724.19
2022-10-22T19:18:19.360Z,98722.25
2022-10-22T19:20:49.342Z,98720.47
2022-10-22T19:23:19.964Z,98718.38
2022-10-22T19:25:47.534Z,98719.00
2022-10-22T19:28:13.928Z,98729.09
2022-10-22T19:30:44.448Z,98726.69
2022-10-22T19:33:10.838Z,98743.06
2022-10-22T19:35:37.233Z,98735.53
2022-10-22T19:38:03.634Z,98740.78
2022-10-22T19:40:30.073Z,98734.84
2022-10-22T19:42:57.578Z,98730.19
2022-10-22T19:45:23.926Z,98733.53
2022-10-22T19:47:50.292Z,98725.69
2022-10-22T19:50:16.714Z,98729.81
2022-10-22T19:52:43.368Z,98730.44
2022-10-22T19:55:10.675Z,98724.16
2022-10-22T19:57:38.784Z,98726.41
2022-10-22T20:00:05.919Z,98724.00
2022-10-22T20:02:32.345Z,98724.31
2022-10-22T20:04:58.737Z,98720.59
2022-10-22T20:07:25.156Z,98721.25
2022-10-22T20:09:51.481Z,98727.50
2022-10-22T20:12:17.838Z,98724.78
2022-10-22T20:14:44.297Z,98725.84
2022-10-22T20:17:10.795Z,98728.59
2022-10-22T20:19:37.225Z,98740.63
2022-10-22T20:22:03.811Z,98739.00
2022-10-22T20:24:30.290Z,98742.22
2022-10-22T20:26:57.605Z,98740.63
2022-10-22T20:29:23.995Z,98744.94
2022-10-22T20:31:50.481Z,98740.44
2022-10-22T20:34:17.397Z,98742.19
2022-10-22T20:36:43.767Z,98737.03
2022-10-22T20:39:13.334Z,98746.34
2022-10-22T20:41:40.549Z,98745.53
2022-10-22T20:44:11.246Z,98743.41
2022-10-22T20:46:37.696Z,98742.63
2022-10-22T20:49:15.778Z,98750.63
2022-10-22T20:51:42.748Z,98745.78
2022-10-22T20:54:09.919Z,98754.28
2022-10-22T20:56:38.603Z,98751.06
2022-10-22T20:59:05.910Z,98747.81
2022-10-22T21:01:41.211Z,98753.91
2022-10-22T21:04:08.190Z,98741.41
2022-10-22T21:06:37.944Z,98735.47
2022-10-22T21:09:06.314Z,98734.13
2022-10-22T21:11:33.323Z,98741.84
2022-10-22T21:14:00.295Z,98739.09
2022-10-22T21:16:26.851Z,98741.84
2022-10-22T21:18:53.359Z,98732.03
2022-10-22T21:21:20.015Z,98729.13
2022-10-22T21:23:46.930Z,98726.41
2022-10-22T21:26:13.328Z,98724.31
2022-10-22T21:28:39.760Z,98724.91
2022-10-22T21:31:10.028Z,98723.78
2022-10-22T21:33:38.348Z,98726.81
2022-10-22T21:36:06.326Z,98730.97
2022-10-22T21:38:33.221Z,98734.84
2022-10-22T21:41:04.375Z,98733.81
2022-10-22T21:43:30.772Z,98732.22
2022-10-22T21:46:22.093Z,98733.34
2022-10-22T21:48:56.713Z,98729.00
2022-10-22T21:51:24.789Z,98734.44
2022-10-22T21:56:33.378Z,98733.44
2022-10-22T21:59:00.713Z,98739.53
2022-10-22T22:01:27.251Z,98728.72
2022-10-22T22:03:53.711Z,98731.88
2022-10-22T22:06:22.391Z,98735.50
2022-10-22T22:08:50.996Z,98726.84
2022-10-22T22:11:20.714Z,98727.47
2022-10-22T22:13:53.530Z,98725.84
2022-10-22T22:16:27.155Z,98723.44
2022-10-22T22:18:56.276Z,98724.88
2022-10-22T22:21:24.688Z,98726.09
2022-10-22T22:23:51.269Z,98722.56
2022-10-22T22:26:25.222Z,98731.53
2022-10-22T22:28:55.703Z,98725.28
2022-10-22T22:31:25.902Z,98735.38
2022-10-22T22:33:58.284Z,98729.94
2022-10-22T22:36:24.653Z,98730.72
2022-10-22T22:38:57.685Z,98736.59
2022-10-22T22:41:24.156Z,98724.06
2022-10-22T22:43:50.641Z,98730.63
2022-10-22T22:46:17.352Z,98736.34
2022-10-22T22:48:43.782Z,98735.53
2022-10-22T22:51:10.805Z,98736.75
2022-10-22T22:53:37.155Z,98739.00
2022-10-22T22:56:10.110Z,98730.03
2022-10-22T22:58:38.868Z,98723.56
2022-10-22T23:01:16.771Z,98718.53
2022-10-22T23:03:45.074Z,98718.84
2022-10-22T23:06:12.546Z,98719.63
2022-10-22T23:08:39.469Z,98725.09
2022-10-22T23:11:12.311Z,98714.19
2022-10-22T23:13:40.484Z,98721.88
2022-10-22T23:16:18.036Z,98715.41
2022-10-22T23:18:46.417Z,98711.69
2022-10-22T23:21:15.659Z,98700.31
2022-10-22T23:23:52.962Z,98692.75
2022-10-22T23:26:25.871Z,98696.09
2022-10-22T23:28:52.294Z,98693.66
2022-10-22T23:31:21.470Z,98683.56
2022-10-22T23:33:48.494Z,98688.53
2022-10-22T23:36:15.107Z,98693.16
2022-10-22T23:38:42.172Z,98690.75
2022-10-22T23:41:08.626Z,98697.88
2022-10-22T23:43:38.602Z,98693.66
2022-10-22T23:46:06.420Z,98698.59
2022-10-22T23:48:33.163Z,98697.31
2022-10-22T23:51:06.883Z,98691.06
2022-10-22T23:53:33.360Z,98687.81
2022-10-22T23:56:05.619Z,98684.59
2022-10-22T23:58:32.792Z,98687.81
